Latest Weather Observations for Arlington Reef

IDQ60801

Issued at 10:22 am EST Friday 15 November 2019 (issued every 10 minutes, with the page automatically refreshed every 10 minutes)

About weather observations | Map of weather stations | Latest weather observations for QLD | Other Formats
Station Details ID: 200879 Name: ARLINGTON REEF Lat: -16.72 Lon: 146.11 Height: 0.0 m
Data from the previous 72 hours. | See also: Recent months at Arlington Reef
Date/Time
EST
Temp
°C
App
Temp
°C
Dew
Point
°C
Rel
Hum
%
Delta-T
°C
Wind Press
QNH
hPa
Press
MSL
hPa
Rain since
9am
mm
Dir  Spd
km/h
Gust
km/h
Spd
kts
Gust
kts
15/10:00am - - - - - E 13 17 7 9 1014.2 1014.2 -
15/09:30am - - - - - ESE 13 17 7 9 1014.2 1014.2 -
15/09:00am - - - - - ESE 17 20 9 11 1014.2 1014.2 -
15/08:30am - - - - - E 15 17 8 9 1014.0 1014.0 -
15/08:00am - - - - - E 19 20 10 11 1013.5 1013.5 -
15/07:30am - - - - - E 19 24 10 13 1013.2 1013.2 -
15/07:00am - - - - - ESE 20 24 11 13 1012.9 1012.9 -
15/06:30am - - - - - ESE 17 24 9 13 1012.4 1012.4 -
15/06:00am - - - - - SE 13 17 7 9 1012.1 1012.1 -
15/05:30am - - - - - ESE 11 15 6 8 1011.7 1011.7 -
15/05:00am - - - - - ESE 9 13 5 7 1011.4 1011.4 -
15/04:30am - - - - - E 6 9 3 5 1011.2 1011.2 -
15/04:00am - - - - - E 7 11 4 6 1010.9 1010.9 -
15/03:30am - - - - - E 7 11 4 6 1010.6 1010.6 -
15/03:00am - - - - - E 7 13 4 7 1010.6 1010.6 -
15/02:30am - - - - - E 6 7 3 4 1010.6 1010.6 -
15/02:00am - - - - - E 7 11 4 6 1010.8 1010.8 -
15/01:30am - - - - - E 7 13 4 7 1011.0 1011.0 -
15/01:00am - - - - - E 7 11 4 6 1011.1 1011.1 -
15/12:30am - - - - - ENE 9 13 5 7 1011.6 1011.6 -
15/12:00am - - - - - ENE 9 13 5 7 1012.0 1012.0 -
 
Date/Time
EST
Temp
°C
App
Temp
°C
Dew
Point
°C
Rel
Hum
%
Delta-T
°C
Wind Press
QNH
hPa
Press
MSL
hPa
Rain since
9am
mm
Dir  Spd
km/h
Gust
km/h
Spd
kts
Gust
kts
14/11:30pm - - - - - ENE 11 15 6 8 1012.4 1012.4 -
14/11:00pm - - - - - ENE 13 17 7 9 1012.7 1012.7 -
14/10:30pm - - - - - ENE 13 17 7 9 1012.8 1012.8 -
14/10:00pm - - - - - ENE 11 15 6 8 1012.9 1012.9 -
14/09:30pm - - - - - ENE 15 17 8 9 1012.6 1012.6 -
14/09:00pm - - - - - ENE 15 19 8 10 1012.2 1012.2 -
14/08:30pm - - - - - ENE 17 20 9 11 1012.1 1012.1 -
14/08:00pm - - - - - ENE 17 20 9 11 1012.1 1012.1 -
14/07:30pm - - - - - ENE 17 20 9 11 1012.0 1012.0 -
14/07:00pm - - - - - ENE 17 19 9 10 1011.8 1011.8 -
14/06:30pm - - - - - ENE 17 19 9 10 1011.5 1011.5 -
14/06:00pm - - - - - ENE 15 20 8 11 1011.2 1011.2 -
14/05:30pm - - - - - ENE 15 19 8 10 1011.1 1011.1 -
14/05:00pm - - - - - ENE 17 22 9 12 1010.8 1010.8 -
14/04:30pm - - - - - ENE 17 20 9 11 1010.7 1010.7 -
14/04:00pm - - - - - NE 15 20 8 11 1010.7 1010.7 -
14/03:30pm - - - - - NE 15 20 8 11 1010.9 1010.9 -
14/03:00pm - - - - - ENE 13 17 7 9 1011.0 1011.0 -
14/02:30pm - - - - - ENE 13 17 7 9 1011.3 1011.3 -
14/02:00pm - - - - - ENE 13 17 7 9 1011.5 1011.5 -
14/01:30pm - - - - - ENE 13 17 7 9 1011.8 1011.8 -
14/01:00pm - - - - - CALM 0 6 0 3 1012.2 1012.2 -
14/12:30pm - - - - - N 2 4 1 2 1012.6 1012.6 -
14/12:00pm - - - - - CALM 0 0 0 0 1012.9 1012.9 -
14/11:30am - - - - - CALM 0 0 0 0 1013.1 1013.1 -
14/11:00am - - - - - CALM 0 0 0 0 1013.4 1013.4 -
14/10:30am - - - - - NNW 2 4 1 2 1013.6 1013.6 -
14/10:00am - - - - - NNW 4 6 2 3 1013.6 1013.6 -
14/09:30am - - - - - NNW 4 6 2 3 1013.6 1013.6 -
14/09:00am - - - - - N 4 6 2 3 1013.6 1013.6 -
14/08:30am - - - - - CALM 0 2 0 1 1013.4 1013.4 -
14/08:00am - - - - - N 6 7 3 4 1013.2 1013.2 -
14/07:30am - - - - - N 6 7 3 4 1013.1 1013.1 -
14/07:00am - - - - - N 9 11 5 6 1012.8 1012.8 -
14/06:30am - - - - - NNE 9 13 5 7 1012.5 1012.5 -
14/06:00am - - - - - NNE 9 13 5 7 1011.9 1011.9 -
14/05:30am - - - - - N 11 15 6 8 1011.5 1011.5 -
14/05:00am - - - - - N 11 13 6 7 1011.4 1011.4 -
14/04:30am - - - - - N 11 15 6 8 1011.2 1011.2 -
14/04:00am - - - - - N 11 13 6 7 1011.1 1011.1 -
14/03:30am - - - - - N 13 15 7 8 1011.2 1011.2 -
14/03:00am - - - - - N 13 15 7 8 1011.1 1011.1 -
14/02:30am - - - - - N 11 13 6 7 1011.2 1011.2 -
14/02:00am - - - - - N 9 13 5 7 1011.4 1011.4 -
14/01:30am - - - - - NNE 9 13 5 7 1011.5 1011.5 -
14/01:00am - - - - - NNE 9 13 5 7 1011.8 1011.8 -
14/12:30am - - - - - NNE 9 13 5 7 1012.3 1012.3 -
14/12:00am - - - - - N 7 9 4 5 1012.7 1012.7 -
 
Date/Time
EST
Temp
°C
App
Temp
°C
Dew
Point
°C
Rel
Hum
%
Delta-T
°C
Wind Press
QNH
hPa
Press
MSL
hPa
Rain since
9am
mm
Dir  Spd
km/h
Gust
km/h
Spd
kts
Gust
kts
13/11:30pm - - - - - NE 9 13 5 7 1013.0 1013.0 -
13/11:00pm - - - - - N 7 11 4 6 1013.2 1013.2 -
13/10:30pm - - - - - NNE 7 9 4 5 1013.4 1013.4 -
13/10:00pm - - - - - NE 11 13 6 7 1013.5 1013.5 -
13/09:30pm - - - - - NE 15 17 8 9 1013.1 1013.1 -
13/09:00pm - - - - - NE 17 20 9 11 1012.9 1012.9 -
13/08:30pm - - - - - NE 19 24 10 13 1012.6 1012.6 -
13/08:00pm - - - - - NE 19 24 10 13 1012.4 1012.4 -
13/07:30pm - - - - - NE 17 19 9 10 1012.4 1012.4 -
13/07:00pm - - - - - NE 13 17 7 9 1012.1 1012.1 -
13/06:30pm - - - - - NE 13 17 7 9 1012.0 1012.0 -
13/06:00pm - - - - - ENE 11 15 6 8 1011.7 1011.7 -
13/05:30pm - - - - - NE 11 15 6 8 1011.7 1011.7 -
13/05:00pm - - - - - ENE 13 19 7 10 1011.4 1011.4 -
13/04:30pm - - - - - ENE 13 15 7 8 1011.3 1011.3 -
13/04:00pm - - - - - ENE 15 17 8 9 1011.2 1011.2 -
13/03:30pm - - - - - ENE 11 15 6 8 1011.3 1011.3 -
13/03:00pm - - - - - ENE 9 15 5 8 1011.4 1011.4 -
13/02:30pm - - - - - ENE 9 13 5 7 1011.8 1011.8 -
13/02:00pm - - - - - ENE 9 13 5 7 1012.1 1012.1 -
13/01:30pm - - - - - NE 6 9 3 5 1012.5 1012.5 -
13/01:00pm - - - - - ENE 6 7 3 4 1013.0 1013.0 -
13/12:30pm - - - - - ENE 4 6 2 3 1013.5 1013.5 -
13/12:00pm - - - - - ENE 6 7 3 4 1014.0 1014.0 -
13/11:30am - - - - - ENE 4 7 2 4 1014.4 1014.4 -
13/11:00am - - - - - E 4 7 2 4 1014.7 1014.7 -
13/10:30am - - - - - E 4 6 2 3 1015.0 1015.0 -
13/10:00am - - - - - E 4 6 2 3 1015.3 1015.3 -
13/09:30am - - - - - E 4 7 2 4 1015.4 1015.4 -
13/09:00am - - - - - E 6 9 3 5 1015.6 1015.6 -
13/08:30am - - - - - ENE 6 9 3 5 1015.5 1015.5 -
13/08:00am - - - - - ENE 9 13 5 7 1015.3 1015.3 -
13/07:30am - - - - - E 9 13 5 7 1015.3 1015.3 -
13/07:00am - - - - - E 11 15 6 8 1015.0 1015.0 -
13/06:30am - - - - - E 11 15 6 8 1014.7 1014.7 -
13/06:00am - - - - - E 13 15 7 8 1014.1 1014.1 -
13/05:30am - - - - - E 13 17 7 9 1013.7 1013.7 -
13/05:00am - - - - - ESE 9 13 5 7 1013.6 1013.6 -
13/04:30am - - - - - ESE 11 13 6 7 1013.5 1013.5 -
13/04:00am - - - - - E 13 17 7 9 1013.5 1013.5 -
13/03:30am - - - - - SE 11 17 6 9 1013.5 1013.5 -
13/03:00am - - - - - SE 11 13 6 7 1013.4 1013.4 -
13/02:30am - - - - - SE 13 15 7 8 1013.6 1013.6 -
13/02:00am - - - - - ESE 15 19 8 10 1013.9 1013.9 -
13/01:30am - - - - - ESE 13 17 7 9 1014.1 1014.1 -
13/01:00am - - - - - SE 13 15 7 8 1014.4 1014.4 -
13/12:30am - - - - - SE 15 17 8 9 1014.9 1014.9 -
13/12:00am - - - - - ESE 15 19 8 10 1015.5 1015.5 -
 
Date/Time
EST
Temp
°C
App
Temp
°C
Dew
Point
°C
Rel
Hum
%
Delta-T
°C
Wind Press
QNH
hPa
Press
MSL
hPa
Rain since
9am
mm
Dir  Spd
km/h
Gust
km/h
Spd
kts
Gust
kts
12/11:30pm - - - - - ESE 15 19 8 10 1015.8 1015.8 -
12/11:00pm - - - - - SE 15 19 8 10 1016.0 1016.0 -
12/10:30pm - - - - - SE 17 20 9 11 1016.1 1016.1 -
12/10:00pm - - - - - SE 17 20 9 11 1016.1 1016.1 -
12/09:30pm - - - - - ESE 17 22 9 12 1016.1 1016.1 -
12/09:00pm - - - - - SE 17 20 9 11 1015.9 1015.9 -
12/08:30pm - - - - - SE 17 20 9 11 1015.7 1015.7 -
12/08:00pm - - - - - SE 15 19 8 10 1015.4 1015.4 -
12/07:30pm - - - - - SE 15 19 8 10 1014.9 1014.9 -
12/07:00pm - - - - - SE 13 17 7 9 1014.5 1014.5 -
12/06:30pm - - - - - ESE 13 17 7 9 1014.3 1014.3 -
12/06:00pm - - - - - ESE 15 17 8 9 1014.1 1014.1 -
12/05:30pm - - - - - ESE 17 20 9 11 1013.9 1013.9 -
12/05:00pm - - - - - ESE 17 20 9 11 1013.7 1013.7 -
12/04:30pm - - - - - SE 15 19 8 10 1013.5 1013.5 -
12/04:00pm - - - - - SE 15 20 8 11 1013.4 1013.4 -
12/03:30pm - - - - - SE 11 17 6 9 1013.5 1013.5 -
12/03:00pm - - - - - SE 13 17 7 9 1013.7 1013.7 -
12/02:30pm - - - - - SE 13 17 7 9 1014.0 1014.0 -
12/02:00pm - - - - - SE 11 17 6 9 1014.3 1014.3 -
12/01:30pm - - - - - SE 15 19 8 10 1014.5 1014.5 -
12/01:00pm - - - - - SE 15 19 8 10 1014.8 1014.8 -
12/12:30pm - - - - - SE 13 19 7 10 1015.4 1015.4 -
12/12:00pm - - - - - SE 15 19 8 10 1015.7 1015.7 -
12/11:30am - - - - - SE 11 15 6 8 1016.1 1016.1 -
12/11:00am - - - - - SSE 13 17 7 9 1016.2 1016.2 -
12/10:30am - - - - - SSE 11 17 6 9 1016.3 1016.3 -

Other formats

Comma delimited format used in spreadsheet applications
http://www.bom.gov.au/fwo/IDQ60801/IDQ60801.94284.axf

JavaScript Object Notation format (JSON) in row-major order
http://www.bom.gov.au/fwo/IDQ60801/IDQ60801.94284.json

Data quality

Most of these data are generated automatically and are frequently updated. Quality checks on data are not normally performed. It is possible for incorrect values to appear. Refer to information at About Latest Weather Observations and please check the disclaimer before using these data.